createdAt,value
2019-04-05T00:00:13.128Z,12.68
2019-04-05T00:01:13.113Z,12.75
2019-04-05T00:02:13.100Z,12.80
2019-04-05T00:03:13.105Z,12.75
2019-04-05T00:04:13.074Z,12.62
2019-04-05T00:05:13.065Z,12.60
2019-04-05T00:06:13.052Z,12.61
2019-04-05T00:07:13.047Z,12.58
2019-04-05T00:08:13.033Z,12.49
2019-04-05T00:09:13.035Z,12.54
2019-04-05T00:10:13.011Z,12.54
2019-04-05T00:11:12.995Z,12.54
2019-04-05T00:12:12.994Z,12.62
2019-04-05T00:13:12.996Z,12.58
2019-04-05T00:14:12.970Z,12.62
2019-04-05T00:15:15.494Z,12.58
2019-04-05T00:16:12.939Z,12.61
2019-04-05T00:17:12.931Z,12.58
2019-04-05T00:18:12.914Z,12.61
2019-04-05T00:19:12.913Z,12.62
2019-04-05T00:20:12.899Z,12.57
2019-04-05T00:21:12.883Z,12.54
2019-04-05T00:22:12.877Z,12.43
2019-04-05T00:23:12.860Z,12.43
2019-04-05T00:24:12.884Z,12.58
2019-04-05T00:25:12.843Z,12.54
2019-04-05T00:26:12.841Z,12.47
2019-04-05T00:27:12.820Z,12.43
2019-04-05T00:28:12.813Z,12.54
2019-04-05T00:29:12.795Z,12.45
2019-04-05T00:30:12.796Z,12.46
2019-04-05T00:31:12.771Z,12.42
2019-04-05T00:32:12.763Z,12.42
2019-04-05T00:33:12.750Z,12.46
2019-04-05T00:34:12.744Z,12.40
2019-04-05T00:35:12.743Z,12.37
2019-04-05T00:36:12.745Z,12.31
2019-04-05T00:37:12.705Z,12.25
2019-04-05T00:38:12.692Z,12.25
2019-04-05T00:39:12.697Z,12.20
2019-04-05T00:40:12.669Z,12.32
2019-04-05T00:41:12.680Z,12.25
2019-04-05T00:42:12.653Z,12.25
2019-04-05T00:43:12.644Z,12.31
2019-04-05T00:44:12.628Z,12.22
2019-04-05T00:45:12.625Z,12.28
2019-04-05T00:46:12.612Z,12.31
2019-04-05T00:47:12.599Z,12.25
2019-04-05T00:48:12.581Z,12.22
2019-04-05T00:49:12.597Z,12.18
2019-04-05T00:50:12.558Z,12.22
2019-04-05T00:51:12.560Z,12.21
2019-04-05T00:52:12.683Z,12.10
2019-04-05T00:53:12.523Z,12.12
2019-04-05T00:54:12.514Z,12.00
2019-04-05T00:55:12.507Z,11.91
2019-04-05T00:56:12.497Z,11.99
2019-04-05T00:57:12.479Z,12.02
2019-04-05T00:58:12.481Z,11.80
2019-04-05T00:59:12.460Z,11.86
2019-04-05T01:00:12.453Z,11.77
2019-04-05T01:01:12.433Z,11.80
2019-04-05T01:02:12.442Z,11.69
2019-04-05T01:03:13.316Z,11.75
2019-04-05T01:04:12.401Z,11.73
2019-04-05T01:05:12.388Z,11.78
2019-04-05T01:06:12.378Z,11.81
2019-04-05T01:07:12.370Z,11.77
2019-04-05T01:08:12.358Z,11.73
2019-04-05T01:09:12.355Z,11.62
2019-04-05T01:10:12.334Z,11.75
2019-04-05T01:11:12.323Z,11.68
2019-04-05T01:12:12.318Z,11.68
2019-04-05T01:13:12.299Z,11.65
2019-04-05T01:14:26.879Z,11.55
2019-04-05T01:15:12.285Z,11.50
2019-04-05T01:16:12.267Z,11.50
2019-04-05T01:17:24.152Z,11.44
2019-04-05T01:18:13.244Z,11.47
2019-04-05T01:19:12.251Z,11.43
2019-04-05T01:20:12.222Z,11.35
2019-04-05T01:21:12.206Z,11.33
2019-04-05T01:22:12.196Z,11.29
2019-04-05T01:23:12.195Z,11.23
2019-04-05T01:24:12.184Z,11.18
2019-04-05T01:25:12.164Z,11.15
2019-04-05T01:26:12.148Z,11.23
2019-04-05T01:27:12.141Z,11.10
2019-04-05T01:28:12.164Z,11.10
2019-04-05T01:29:12.125Z,11.08
2019-04-05T01:30:12.111Z,11.18
2019-04-05T01:31:12.119Z,11.00
2019-04-05T01:32:12.090Z,10.99
2019-04-05T01:33:12.072Z,11.00
2019-04-05T01:34:12.071Z,11.00
2019-04-05T01:35:12.055Z,10.90
2019-04-05T01:36:12.040Z,10.93
2019-04-05T01:37:12.043Z,10.84
2019-04-05T01:38:12.040Z,10.79
2019-04-05T01:39:12.008Z,10.78
2019-04-05T01:40:11.999Z,10.78
2019-04-05T01:41:11.986Z,10.81
2019-04-05T01:42:11.983Z,10.76
2019-04-05T01:43:11.969Z,10.75
2019-04-05T01:44:11.959Z,10.81
2019-04-05T01:45:11.940Z,10.75
2019-04-05T01:46:11.931Z,10.84
2019-04-05T01:47:11.966Z,10.86
2019-04-05T01:48:11.910Z,10.74
2019-04-05T01:49:11.896Z,10.79
2019-04-05T01:50:11.891Z,10.78
2019-04-05T01:51:11.904Z,10.86
2019-04-05T01:52:11.871Z,10.76
2019-04-05T01:53:11.873Z,10.82
2019-04-05T01:54:11.843Z,10.81
2019-04-05T01:55:11.840Z,10.81
2019-04-05T01:56:11.820Z,10.78
2019-04-05T01:57:11.811Z,10.78
2019-04-05T01:58:11.834Z,10.84
2019-04-05T01:59:11.794Z,10.89
2019-04-05T02:00:11.778Z,10.84
2019-04-05T02:01:11.788Z,10.78
2019-04-05T02:02:11.757Z,10.82
2019-04-05T02:03:11.750Z,10.75
2019-04-05T02:04:11.747Z,10.72
2019-04-05T02:05:11.722Z,10.74
2019-04-05T02:06:11.713Z,10.76
2019-04-05T02:07:11.708Z,10.67
2019-04-05T02:08:11.694Z,10.78
2019-04-05T02:09:11.684Z,10.64
2019-04-05T02:10:11.674Z,10.68
2019-04-05T02:11:11.673Z,10.74
2019-04-05T02:12:11.653Z,10.68
2019-04-05T02:13:11.637Z,10.64
2019-04-05T02:14:11.644Z,10.63
2019-04-05T02:15:11.619Z,10.63
2019-04-05T02:16:11.617Z,10.60
2019-04-05T02:17:11.591Z,10.68
2019-04-05T02:18:11.581Z,10.72
2019-04-05T02:19:11.569Z,10.69
2019-04-05T02:20:11.566Z,10.63
2019-04-05T02:21:11.590Z,10.64
2019-04-05T02:22:11.541Z,10.68
2019-04-05T02:23:11.535Z,10.61
2019-04-05T02:24:11.516Z,10.69
2019-04-05T02:25:11.513Z,10.60
2019-04-05T02:26:11.506Z,10.59
2019-04-05T02:27:11.515Z,10.57
2019-04-05T02:28:11.472Z,10.42
2019-04-05T02:29:11.466Z,10.44
2019-04-05T02:30:11.453Z,10.40
2019-04-05T02:31:11.439Z,10.42
2019-04-05T02:32:11.462Z,10.40
2019-04-05T02:33:11.416Z,10.31
2019-04-05T02:34:11.415Z,10.33
2019-04-05T02:35:11.400Z,10.37
2019-04-05T02:36:11.396Z,10.38
2019-04-05T02:37:11.401Z,10.40
2019-04-05T02:38:11.373Z,10.40
2019-04-05T02:39:11.356Z,10.37
2019-04-05T02:40:11.342Z,10.31
2019-04-05T02:41:11.334Z,10.33
2019-04-05T02:42:11.318Z,10.30
2019-04-05T02:43:11.319Z,10.30
2019-04-05T02:44:11.299Z,10.25
2019-04-05T02:45:11.309Z,10.30
2019-04-05T02:46:23.234Z,10.38
2019-04-05T02:47:12.266Z,10.37
2019-04-05T02:48:11.264Z,10.41
2019-04-05T02:49:11.258Z,10.40
2019-04-05T02:50:11.240Z,10.49
2019-04-05T02:51:11.233Z,10.41
2019-04-05T02:52:11.211Z,10.42
2019-04-05T02:53:11.239Z,10.37
2019-04-05T02:54:11.207Z,10.26
2019-04-05T02:55:11.188Z,10.33
2019-04-05T02:56:11.167Z,10.35
2019-04-05T02:57:11.165Z,10.35
2019-04-05T02:58:11.146Z,10.33
2019-04-05T02:59:11.155Z,10.28
2019-04-05T03:00:11.166Z,10.34
2019-04-05T03:01:11.117Z,10.38
2019-04-05T03:02:11.105Z,10.37
2019-04-05T03:03:11.104Z,10.33
2019-04-05T03:04:11.084Z,10.28
2019-04-05T03:05:11.073Z,10.31
2019-04-05T03:06:11.066Z,10.23
2019-04-05T03:07:11.049Z,10.09
2019-04-05T03:08:11.040Z,10.17
2019-04-05T03:09:11.028Z,10.04
2019-04-05T03:10:11.029Z,10.12
2019-04-05T03:11:11.006Z,10.15
2019-04-05T03:12:10.991Z,10.13
2019-04-05T03:13:11.004Z,10.12
2019-04-05T03:14:10.980Z,10.19
2019-04-05T03:15:10.979Z,10.09
2019-04-05T03:16:10.947Z,10.19
2019-04-05T03:17:10.937Z,10.13
2019-04-05T03:18:10.936Z,10.15
2019-04-05T03:19:10.917Z,10.12
2019-04-05T03:20:10.928Z,10.15
2019-04-05T03:21:10.892Z,10.12
2019-04-05T03:22:10.890Z,10.19
2019-04-05T03:23:10.876Z,10.23
2019-04-05T03:24:10.864Z,10.09
2019-04-05T03:25:10.875Z,9.97
2019-04-05T03:26:10.869Z,9.99
2019-04-05T03:27:10.832Z,9.94
2019-04-05T03:28:10.820Z,9.99
2019-04-05T03:29:10.823Z,9.98
2019-04-05T03:30:10.803Z,10.02
2019-04-05T03:31:10.808Z,10.02
2019-04-05T03:32:10.778Z,9.94
2019-04-05T03:33:10.762Z,9.98
2019-04-05T03:34:10.755Z,9.97
2019-04-05T03:35:10.781Z,10.10
2019-04-05T03:36:10.737Z,10.05
2019-04-05T03:37:10.723Z,9.99
2019-04-05T03:38:10.717Z,9.99
2019-04-05T03:39:10.695Z,9.94
2019-04-05T03:40:10.685Z,9.99
2019-04-05T03:41:10.715Z,9.94
2019-04-05T03:42:10.664Z,9.92
2019-04-05T03:43:10.657Z,9.87
2019-04-05T03:44:10.650Z,9.89
2019-04-05T03:45:10.636Z,9.94
2019-04-05T03:46:10.653Z,9.91
2019-04-05T03:47:10.657Z,9.91
2019-04-05T03:48:10.594Z,9.86
2019-04-05T03:49:10.604Z,9.80
2019-04-05T03:50:10.580Z,9.74
2019-04-05T03:51:10.565Z,9.80
2019-04-05T03:52:10.556Z,9.69
2019-04-05T03:53:10.559Z,9.68
2019-04-05T03:54:10.529Z,9.61
2019-04-05T03:55:10.522Z,9.61
2019-04-05T03:56:10.510Z,9.66
2019-04-05T03:57:10.499Z,9.65
2019-04-05T03:58:10.503Z,9.64
2019-04-05T03:59:10.473Z,9.59
2019-04-05T04:00:10.470Z,9.55
2019-04-05T04:01:10.455Z,9.47
2019-04-05T04:02:10.446Z,9.47
2019-04-05T04:03:10.444Z,9.54
2019-04-05T04:04:10.446Z,9.41
2019-04-05T04:05:10.421Z,9.40
2019-04-05T04:06:10.414Z,9.28
2019-04-05T04:07:10.389Z,9.32
2019-04-05T04:08:10.391Z,9.31
2019-04-05T04:09:10.367Z,9.29
2019-04-05T04:10:10.357Z,9.36
2019-04-05T04:11:10.349Z,9.39
2019-04-05T04:12:10.341Z,9.36
2019-04-05T04:13:10.321Z,9.23
2019-04-05T04:14:10.327Z,9.25
2019-04-05T04:15:13.547Z,9.29
2019-04-05T04:16:10.291Z,9.29
2019-04-05T04:17:12.738Z,9.21
2019-04-05T04:18:10.387Z,9.18
2019-04-05T04:19:10.252Z,9.14
2019-04-05T04:20:10.251Z,9.13
2019-04-05T04:21:10.239Z,9.04
2019-04-05T04:22:10.283Z,9.08
2019-04-05T04:23:10.206Z,9.08
2019-04-05T04:24:10.220Z,9.03
2019-04-05T04:25:10.210Z,9.00
2019-04-05T04:26:10.171Z,8.91
2019-04-05T04:27:10.176Z,9.00
2019-04-05T04:28:10.153Z,9.00
2019-04-05T04:29:10.150Z,8.97
2019-04-05T04:30:10.134Z,9.00
2019-04-05T04:31:10.124Z,9.11
2019-04-05T04:32:10.110Z,9.06
2019-04-05T04:33:10.100Z,9.14
2019-04-05T04:34:10.098Z,9.03
2019-04-05T04:35:10.072Z,9.02
2019-04-05T04:36:13.139Z,8.87
2019-04-05T04:37:10.050Z,8.84
2019-04-05T04:38:10.073Z,8.71
2019-04-05T04:39:10.036Z,8.69
2019-04-05T04:40:10.027Z,8.61
2019-04-05T04:41:10.009Z,8.49
2019-04-05T04:42:10.003Z,8.52
2019-04-05T04:43:09.989Z,8.48
2019-04-05T04:44:09.979Z,8.42
2019-04-05T04:45:12.485Z,8.41
2019-04-05T04:46:09.955Z,8.44
2019-04-05T04:47:09.946Z,8.34
2019-04-05T04:48:09.937Z,8.30
2019-04-05T04:49:09.925Z,8.31
2019-04-05T04:50:09.974Z,8.18
2019-04-05T04:51:09.897Z,8.18
2019-04-05T04:52:09.889Z,8.13
2019-04-05T04:53:09.878Z,8.15
2019-04-05T04:54:09.875Z,8.18
2019-04-05T04:55:09.856Z,8.15
2019-04-05T04:56:09.847Z,8.33
2019-04-05T04:57:09.829Z,8.53
2019-04-05T04:58:09.821Z,8.69
2019-04-05T04:59:09.812Z,8.84
2019-04-05T05:00:09.807Z,9.10
2019-04-05T05:01:09.798Z,9.28
2019-04-05T05:02:09.773Z,9.40
2019-04-05T05:03:09.760Z,9.54
2019-04-05T05:04:09.756Z,9.73
2019-04-05T05:05:09.760Z,9.84
2019-04-05T05:06:09.752Z,9.91
2019-04-05T05:07:09.717Z,9.97
2019-04-05T05:08:09.711Z,10.15
2019-04-05T05:09:09.703Z,10.26
2019-04-05T05:10:09.692Z,10.31
2019-04-05T05:11:14.725Z,10.37
2019-04-05T05:12:10.699Z,10.44
2019-04-05T05:13:09.651Z,10.57
2019-04-05T05:14:09.651Z,10.61
2019-04-05T05:15:09.629Z,10.76
2019-04-05T05:16:09.622Z,10.61
2019-04-05T05:17:09.609Z,10.78
2019-04-05T05:18:09.608Z,10.89
2019-04-05T05:19:09.583Z,11.02
2019-04-05T05:20:09.584Z,11.07
2019-04-05T05:21:09.571Z,11.22
2019-04-05T05:22:09.554Z,11.33
2019-04-05T05:23:09.537Z,11.37
2019-04-05T05:24:09.534Z,11.63
2019-04-05T05:25:09.517Z,11.62
2019-04-05T05:26:09.522Z,11.78
2019-04-05T05:27:09.497Z,11.86
2019-04-05T05:28:09.485Z,12.00
2019-04-05T05:29:09.476Z,12.04
2019-04-05T05:30:09.467Z,12.17
2019-04-05T05:31:09.466Z,12.31
2019-04-05T05:32:09.872Z,12.27
2019-04-05T05:33:09.451Z,12.09
2019-04-05T05:34:09.422Z,12.04
2019-04-05T05:35:09.418Z,12.03
2019-04-05T05:36:10.679Z,12.18
2019-04-05T05:37:09.411Z,12.35
2019-04-05T05:38:09.375Z,12.43
2019-04-05T05:39:09.375Z,12.43
2019-04-05T05:40:09.354Z,12.43
2019-04-05T05:41:09.350Z,12.20
2019-04-05T05:42:09.389Z,12.12
2019-04-05T05:43:09.326Z,12.18
2019-04-05T05:44:09.311Z,12.32
2019-04-05T05:45:09.339Z,12.25
2019-04-05T05:46:09.285Z,12.12
2019-04-05T05:47:09.301Z,11.86
2019-04-05T05:48:09.277Z,11.72
2019-04-05T05:49:09.265Z,11.52
2019-04-05T05:50:09.244Z,11.25
2019-04-05T05:51:09.231Z,10.96
2019-04-05T05:52:09.232Z,11.02
2019-04-05T05:53:09.219Z,11.02
2019-04-05T05:54:09.198Z,10.94
2019-04-05T05:55:09.188Z,10.68
2019-04-05T05:56:09.179Z,10.63
2019-04-05T05:57:09.185Z,10.57
2019-04-05T05:58:09.157Z,10.46
2019-04-05T05:59:09.159Z,10.41
2019-04-05T06:00:09.174Z,10.42
2019-04-05T06:01:09.143Z,10.42
2019-04-05T06:02:09.140Z,10.35
2019-04-05T06:03:11.344Z,10.16
2019-04-05T06:04:09.096Z,9.98
2019-04-05T06:05:09.080Z,10.09
2019-04-05T06:06:09.081Z,9.99
2019-04-05T06:07:09.066Z,9.89
2019-04-05T06:08:09.051Z,9.84
2019-04-05T06:09:09.034Z,9.86
2019-04-05T06:10:09.028Z,9.89
2019-04-05T06:11:09.011Z,9.79
2019-04-05T06:12:09.016Z,9.32
2019-04-05T06:13:09.020Z,8.70
2019-04-05T06:14:08.982Z,8.26
2019-04-05T06:15:08.970Z,7.93
2019-04-05T06:16:08.969Z,7.60
2019-04-05T06:17:08.955Z,7.39
2019-04-05T06:18:12.040Z,7.20
2019-04-05T06:19:08.929Z,7.18
2019-04-05T06:20:08.916Z,7.00
2019-04-05T06:21:08.904Z,6.97
2019-04-05T06:22:08.899Z,7.13
2019-04-05T06:23:08.888Z,7.11
2019-04-05T06:24:08.887Z,7.11
2019-04-05T06:25:08.857Z,7.06
2019-04-05T06:26:08.877Z,7.03
2019-04-05T06:27:08.848Z,6.99
2019-04-05T06:28:08.826Z,6.95
2019-04-05T06:29:08.811Z,6.96
2019-04-05T06:30:08.799Z,6.93
2019-04-05T06:31:08.793Z,6.85
2019-04-05T06:32:08.781Z,6.81
2019-04-05T06:33:08.777Z,6.88
2019-04-05T06:34:08.756Z,6.93
2019-04-05T06:35:08.751Z,6.87
2019-04-05T06:36:08.738Z,6.92
2019-04-05T06:37:08.738Z,6.92
2019-04-05T06:38:08.716Z,6.93
2019-04-05T06:39:08.701Z,6.87
2019-04-05T06:40:08.693Z,6.77
2019-04-05T06:41:08.687Z,6.69
2019-04-05T06:42:08.688Z,6.81
2019-04-05T06:43:08.656Z,6.77
2019-04-05T06:44:08.653Z,6.67
2019-04-05T06:45:08.634Z,6.70
2019-04-05T06:46:08.630Z,6.79
2019-04-05T06:47:08.642Z,6.72
2019-04-05T06:48:18.988Z,6.74
2019-04-05T06:49:09.593Z,6.72
2019-04-05T06:50:08.584Z,6.70
2019-04-05T06:51:08.572Z,6.79
2019-04-05T06:52:08.556Z,6.70
2019-04-05T06:53:08.563Z,6.78
2019-04-05T06:54:08.548Z,6.89
2019-04-05T06:55:08.525Z,6.92
2019-04-05T06:56:08.518Z,7.03
2019-04-05T06:57:08.513Z,6.93
2019-04-05T06:58:10.310Z,6.95
2019-04-05T06:59:08.482Z,6.92
2019-04-05T07:00:08.472Z,6.95
2019-04-05T07:01:08.461Z,6.97
2019-04-05T07:02:08.447Z,7.11
2019-04-05T07:03:08.441Z,7.06
2019-04-05T07:04:08.444Z,7.10
2019-04-05T07:05:08.468Z,7.14
2019-04-05T07:06:08.407Z,7.31
2019-04-05T07:07:08.395Z,7.28
2019-04-05T07:08:08.384Z,7.29
2019-04-05T07:09:08.368Z,7.33
2019-04-05T07:10:08.359Z,7.29
2019-04-05T07:11:08.370Z,7.11
2019-04-05T07:12:08.388Z,7.10
2019-04-05T07:13:08.432Z,7.06
2019-04-05T07:14:08.324Z,6.97
2019-04-05T07:15:08.347Z,7.00
2019-04-05T07:16:10.998Z,6.93
2019-04-05T07:17:08.280Z,7.00
2019-04-05T07:18:08.270Z,6.96
2019-04-05T07:19:08.262Z,7.07
2019-04-05T07:20:08.250Z,7.13
2019-04-05T07:21:08.244Z,7.29
2019-04-05T07:22:08.229Z,7.21
2019-04-05T07:23:08.214Z,7.31
2019-04-05T07:24:08.201Z,7.24
2019-04-05T07:25:08.203Z,7.33
2019-04-05T07:26:08.183Z,7.42
2019-04-05T07:27:08.170Z,7.50
2019-04-05T07:28:08.159Z,7.60
2019-04-05T07:29:08.158Z,7.58
2019-04-05T07:30:08.141Z,7.75
2019-04-05T07:31:08.301Z,7.66
2019-04-05T07:32:08.129Z,7.69
2019-04-05T07:33:08.108Z,7.58
2019-04-05T07:34:08.099Z,7.53
2019-04-05T07:35:08.079Z,7.58
2019-04-05T07:36:08.075Z,7.63
2019-04-05T07:37:08.065Z,7.60
2019-04-05T07:38:09.782Z,7.61
2019-04-05T07:39:08.040Z,7.60
2019-04-05T07:40:08.040Z,7.60
2019-04-05T07:41:16.217Z,7.67
2019-04-05T07:42:08.012Z,7.70
2019-04-05T07:43:08.046Z,7.77
2019-04-05T07:44:07.985Z,7.85
2019-04-05T07:45:07.968Z,7.63
2019-04-05T07:46:08.011Z,7.73
2019-04-05T07:47:07.998Z,7.63
2019-04-05T07:48:07.939Z,7.60
2019-04-05T07:49:07.929Z,7.57
2019-04-05T07:50:07.918Z,7.54
2019-04-05T07:51:07.911Z,7.50
2019-04-05T07:52:07.893Z,7.58
2019-04-05T07:53:07.889Z,7.56
2019-04-05T07:54:07.874Z,7.51
2019-04-05T07:55:07.866Z,7.54
2019-04-05T07:56:07.854Z,7.58
2019-04-05T07:57:07.835Z,7.53
2019-04-05T07:58:07.833Z,7.58
2019-04-05T07:59:07.816Z,7.75
2019-04-05T08:00:07.807Z,7.87
2019-04-05T08:01:07.799Z,7.88
2019-04-05T08:02:07.786Z,7.88
2019-04-05T08:03:07.822Z,7.94
2019-04-05T08:04:07.763Z,7.98
2019-04-05T08:05:07.747Z,7.94
2019-04-05T08:06:07.742Z,7.97
2019-04-05T08:07:07.732Z,7.94
2019-04-05T08:08:07.716Z,7.94
2019-04-05T08:09:07.714Z,7.98
2019-04-05T08:10:07.699Z,7.93
2019-04-05T08:11:07.683Z,7.91
2019-04-05T08:12:07.673Z,8.01
2019-04-05T08:13:07.659Z,7.95
2019-04-05T08:14:07.664Z,8.03
2019-04-05T08:15:07.640Z,8.00
2019-04-05T08:16:07.629Z,7.97
2019-04-05T08:17:07.617Z,8.01
2019-04-05T08:18:07.611Z,8.10
2019-04-05T08:19:07.609Z,8.19
2019-04-05T08:20:07.581Z,8.34
2019-04-05T08:21:07.568Z,8.34
2019-04-05T08:22:07.557Z,8.51
2019-04-05T08:23:07.551Z,8.53
2019-04-05T08:24:07.541Z,8.71
2019-04-05T08:25:07.539Z,8.78
2019-04-05T08:26:07.515Z,8.73
2019-04-05T08:27:07.503Z,8.74
2019-04-05T08:28:07.491Z,8.70
2019-04-05T08:29:07.486Z,8.53
2019-04-05T08:30:07.484Z,8.52
2019-04-05T08:31:10.831Z,8.63
2019-04-05T08:32:14.284Z,8.63
2019-04-05T08:33:08.438Z,8.64
2019-04-05T08:34:07.429Z,8.66
2019-04-05T08:35:07.425Z,8.66
2019-04-05T08:36:07.421Z,8.67
2019-04-05T08:37:07.395Z,8.67
2019-04-05T08:38:07.387Z,8.67
2019-04-05T08:39:07.370Z,8.74
2019-04-05T08:40:07.362Z,8.85
2019-04-05T08:41:07.359Z,8.91
2019-04-05T08:42:07.334Z,8.85
2019-04-05T08:43:07.332Z,8.88
2019-04-05T08:44:07.314Z,8.88
2019-04-05T08:45:07.302Z,9.02
2019-04-05T08:46:07.306Z,9.04
2019-04-05T08:47:07.288Z,9.04
2019-04-05T08:48:07.282Z,9.00
2019-04-05T08:49:10.825Z,9.02
2019-04-05T08:50:07.252Z,9.03
2019-04-05T08:51:07.243Z,9.11
2019-04-05T08:52:07.259Z,9.11
2019-04-05T08:53:07.224Z,9.16
2019-04-05T08:54:07.209Z,9.22
2019-04-05T08:55:07.197Z,9.23
2019-04-05T08:56:07.188Z,9.23
2019-04-05T08:57:07.218Z,9.22
2019-04-05T08:58:07.172Z,9.23
2019-04-05T08:59:07.152Z,9.21
2019-04-05T09:00:07.168Z,9.19
2019-04-05T09:01:07.139Z,9.18
2019-04-05T09:02:07.122Z,9.03
2019-04-05T09:03:07.120Z,9.08
2019-04-05T09:04:07.158Z,9.18
2019-04-05T09:05:07.089Z,9.16
2019-04-05T09:06:07.080Z,9.25
2019-04-05T09:07:07.062Z,9.31
2019-04-05T09:08:07.073Z,9.40
2019-04-05T09:09:07.042Z,9.39
2019-04-05T09:10:07.051Z,9.46
2019-04-05T09:11:07.020Z,9.46
2019-04-05T09:12:07.005Z,9.25
2019-04-05T09:13:06.999Z,9.28
2019-04-05T09:14:06.997Z,9.25
2019-04-05T09:15:06.976Z,9.16
2019-04-05T09:16:06.964Z,9.10
2019-04-05T09:17:06.951Z,9.21
2019-04-05T09:18:06.943Z,9.16
2019-04-05T09:19:06.935Z,9.26
2019-04-05T09:20:06.923Z,9.16
2019-04-05T09:21:09.832Z,9.18
2019-04-05T09:22:06.890Z,9.16
2019-04-05T09:23:06.886Z,9.19
2019-04-05T09:24:06.868Z,9.23
2019-04-05T09:25:06.863Z,9.25
2019-04-05T09:26:06.851Z,9.23
2019-04-05T09:27:06.837Z,9.23
2019-04-05T09:28:06.831Z,9.25
2019-04-05T09:29:09.100Z,9.14
2019-04-05T09:30:06.816Z,9.21
2019-04-05T09:31:06.800Z,9.14
2019-04-05T09:32:06.790Z,9.26
2019-04-05T09:33:06.776Z,9.34
2019-04-05T09:34:06.764Z,9.46
2019-04-05T09:35:06.754Z,9.46
2019-04-05T09:36:06.751Z,9.40
2019-04-05T09:37:06.732Z,9.43
2019-04-05T09:38:06.714Z,9.28
2019-04-05T09:39:06.707Z,9.41
2019-04-05T09:40:06.752Z,9.44
2019-04-05T09:41:06.681Z,9.43
2019-04-05T09:42:06.676Z,9.37
2019-04-05T09:43:06.670Z,9.48
2019-04-05T09:44:06.654Z,9.58
2019-04-05T09:45:06.707Z,9.59
2019-04-05T09:46:06.640Z,9.58
2019-04-05T09:47:06.620Z,9.56
2019-04-05T09:48:06.616Z,9.58
2019-04-05T09:49:06.591Z,9.51
2019-04-05T09:50:06.580Z,9.34
2019-04-05T09:51:07.295Z,9.43
2019-04-05T09:52:06.565Z,9.39
2019-04-05T09:53:06.557Z,9.39
2019-04-05T09:54:06.541Z,9.56
2019-04-05T09:55:06.528Z,9.56
2019-04-05T09:56:06.701Z,9.58
2019-04-05T09:57:06.505Z,9.56
2019-04-05T09:58:06.489Z,9.47
2019-04-05T09:59:06.480Z,9.54
2019-04-05T10:00:06.466Z,9.59
2019-04-05T10:01:06.455Z,9.69
2019-04-05T10:02:06.459Z,9.66
2019-04-05T10:03:06.437Z,9.61
2019-04-05T10:04:06.443Z,9.55
2019-04-05T10:05:06.415Z,9.59
2019-04-05T10:06:06.396Z,9.55
2019-04-05T10:07:06.386Z,9.51
2019-04-05T10:08:06.383Z,9.54
2019-04-05T10:09:06.401Z,9.61
2019-04-05T10:10:06.356Z,9.73
2019-04-05T10:11:06.345Z,9.66
2019-04-05T10:12:06.328Z,9.74
2019-04-05T10:13:06.324Z,9.62
2019-04-05T10:14:06.305Z,9.65
2019-04-05T10:15:06.309Z,9.76
2019-04-05T10:16:06.282Z,9.82
2019-04-05T10:17:06.275Z,9.77
2019-04-05T10:18:06.277Z,9.76
2019-04-05T10:19:06.257Z,9.68
2019-04-05T10:20:06.251Z,9.68
2019-04-05T10:21:06.233Z,9.79
2019-04-05T10:22:06.215Z,9.92
2019-04-05T10:23:06.202Z,10.02
2019-04-05T10:24:06.199Z,10.01
2019-04-05T10:25:06.231Z,10.02
2019-04-05T10:26:06.168Z,10.04
2019-04-05T10:27:06.157Z,10.01
2019-04-05T10:28:06.145Z,10.05
2019-04-05T10:29:06.140Z,10.07
2019-04-05T10:30:06.138Z,9.94
2019-04-05T10:31:06.137Z,10.02
2019-04-05T10:32:06.105Z,9.89
2019-04-05T10:33:06.097Z,9.97
2019-04-05T10:34:06.077Z,9.98
2019-04-05T10:35:06.066Z,9.95
2019-04-05T10:36:06.056Z,10.01
2019-04-05T10:37:06.054Z,10.12
2019-04-05T10:38:06.041Z,10.09
2019-04-05T10:39:06.027Z,10.19
2019-04-05T10:40:06.025Z,10.23
2019-04-05T10:41:06.002Z,10.28
2019-04-05T10:42:06.012Z,10.41
2019-04-05T10:43:05.985Z,10.41
2019-04-05T10:44:05.972Z,10.59
2019-04-05T10:45:05.956Z,10.69
2019-04-05T10:46:05.960Z,10.79
2019-04-05T10:47:05.934Z,10.79
2019-04-05T10:48:05.937Z,10.67
2019-04-05T10:49:05.911Z,10.63
2019-04-05T10:50:05.916Z,10.68
2019-04-05T10:51:05.897Z,10.68
2019-04-05T10:52:05.877Z,10.78
2019-04-05T10:53:05.933Z,10.94
2019-04-05T10:54:05.856Z,11.05
2019-04-05T10:55:05.847Z,11.08
2019-04-05T10:56:05.833Z,11.19
2019-04-05T10:57:05.823Z,11.32
2019-04-05T10:58:05.819Z,11.40
2019-04-05T10:59:05.816Z,11.41
2019-04-05T11:00:05.795Z,11.40
2019-04-05T11:01:05.780Z,11.43
2019-04-05T11:02:05.767Z,11.48
2019-04-05T11:03:05.769Z,11.65
2019-04-05T11:04:05.744Z,11.72
2019-04-05T11:05:05.733Z,11.72
2019-04-05T11:06:05.738Z,11.62
2019-04-05T11:07:05.717Z,11.70
2019-04-05T11:08:05.718Z,11.69
2019-04-05T11:09:05.692Z,11.70
2019-04-05T11:10:05.715Z,11.69
2019-04-05T11:11:05.712Z,11.72
2019-04-05T11:12:08.474Z,11.78
2019-04-05T11:13:05.644Z,11.77
2019-04-05T11:14:13.598Z,11.80
2019-04-05T11:15:06.621Z,11.88
2019-04-05T11:16:05.617Z,11.88
2019-04-05T11:17:05.611Z,11.81
2019-04-05T11:18:05.591Z,11.77
2019-04-05T11:19:05.577Z,11.75
2019-04-05T11:20:20.144Z,12.00
2019-04-05T11:21:06.555Z,12.17
2019-04-05T11:22:05.549Z,12.28
2019-04-05T11:23:05.538Z,12.24
2019-04-05T11:24:05.522Z,12.21
2019-04-05T11:25:05.517Z,12.25
2019-04-05T11:26:05.515Z,12.31
2019-04-05T11:27:06.826Z,12.37
2019-04-05T11:28:05.482Z,12.47
2019-04-05T11:29:05.472Z,12.62
2019-04-05T11:30:05.459Z,12.65
2019-04-05T11:31:05.484Z,12.70
2019-04-05T11:32:05.433Z,12.87
2019-04-05T11:33:05.426Z,13.00
2019-04-05T11:34:05.416Z,13.23
2019-04-05T11:35:05.406Z,13.33
2019-04-05T11:36:05.393Z,13.47
2019-04-05T11:37:05.387Z,13.56
2019-04-05T11:38:05.374Z,13.54
2019-04-05T11:39:05.522Z,13.70
2019-04-05T11:40:05.355Z,13.67
2019-04-05T11:41:05.338Z,13.68
2019-04-05T11:42:05.349Z,13.70
2019-04-05T11:43:05.317Z,13.71
2019-04-05T11:44:05.304Z,13.59
2019-04-05T11:45:05.288Z,13.62
2019-04-05T11:46:05.277Z,13.54
2019-04-05T11:47:05.265Z,13.67
2019-04-05T11:48:05.269Z,13.74
2019-04-05T11:49:05.246Z,13.77
2019-04-05T11:50:05.238Z,13.71
2019-04-05T11:51:05.231Z,13.60
2019-04-05T11:52:05.217Z,13.68
2019-04-05T11:53:05.229Z,13.74
2019-04-05T11:54:05.192Z,13.63
2019-04-05T11:55:05.176Z,13.54
2019-04-05T11:56:14.653Z,13.60
2019-04-05T11:57:06.154Z,13.79
2019-04-05T11:58:05.143Z,13.81
2019-04-05T11:59:05.147Z,13.74
2019-04-05T12:00:05.128Z,13.77
2019-04-05T12:01:05.118Z,14.00
2019-04-05T12:02:05.097Z,14.08
2019-04-05T12:03:05.094Z,14.14
2019-04-05T12:04:05.089Z,14.28
2019-04-05T12:05:05.116Z,14.47
2019-04-05T12:06:05.067Z,14.43
2019-04-05T12:07:05.046Z,14.33
2019-04-05T12:08:05.036Z,14.51
2019-04-05T12:09:05.034Z,14.78
2019-04-05T12:10:13.073Z,14.81
2019-04-05T12:11:05.001Z,14.72
2019-04-05T12:12:04.993Z,14.70
2019-04-05T12:13:04.990Z,14.55
2019-04-05T12:14:05.004Z,14.29
2019-04-05T12:15:06.482Z,14.17
2019-04-05T12:16:06.057Z,14.43
2019-04-05T12:17:05.680Z,14.47
2019-04-05T12:18:05.325Z,14.55
2019-04-05T12:19:05.498Z,14.69
2019-04-05T12:20:04.921Z,14.79
2019-04-05T12:21:05.718Z,14.97
2019-04-05T12:22:05.842Z,15.03
2019-04-05T12:23:04.877Z,15.21
2019-04-05T12:24:04.857Z,15.39
2019-04-05T12:25:04.878Z,15.68
2019-04-05T12:26:05.048Z,15.83
2019-04-05T12:27:05.633Z,15.95
2019-04-05T12:28:06.932Z,16.26
2019-04-05T12:29:04.802Z,16.32
2019-04-05T12:30:04.793Z,16.47
2019-04-05T12:31:04.795Z,16.58
2019-04-05T12:32:04.775Z,16.35
2019-04-05T12:33:13.945Z,16.35
2019-04-05T12:34:05.752Z,16.41
2019-04-05T12:35:04.746Z,15.95
2019-04-05T12:36:04.730Z,15.88
2019-04-05T12:37:04.726Z,16.02
2019-04-05T12:38:07.014Z,16.42
2019-04-05T12:39:08.050Z,16.57
2019-04-05T12:40:05.242Z,16.36
2019-04-05T12:41:04.680Z,16.16
2019-04-05T12:42:04.659Z,15.82
2019-04-05T12:43:04.649Z,15.90
2019-04-05T12:44:04.647Z,16.16
2019-04-05T12:45:04.668Z,16.39
2019-04-05T12:46:04.622Z,16.54
2019-04-05T12:47:04.604Z,16.46
2019-04-05T12:48:04.600Z,16.39
2019-04-05T12:49:04.587Z,16.21
2019-04-05T12:50:04.576Z,16.29
2019-04-05T12:51:05.631Z,16.28
2019-04-05T12:52:04.550Z,16.09
2019-04-05T12:53:04.544Z,15.86
2019-04-05T12:54:04.526Z,15.77
2019-04-05T12:55:04.515Z,15.90
2019-04-05T12:56:04.517Z,15.94
2019-04-05T12:57:04.497Z,16.17
2019-04-05T12:58:04.482Z,16.16
2019-04-05T12:59:04.478Z,16.08
2019-04-05T13:00:04.461Z,15.98
2019-04-05T13:01:04.502Z,16.05
2019-04-05T13:02:04.439Z,16.38
2019-04-05T13:03:04.437Z,16.83
2019-04-05T13:04:04.414Z,16.94